sensor_id;sensor_type;location;lat;lon;timestamp;P1;durP1;ratioP1;P2;durP2;ratioP2
13244;SDS011;6689;53.400;12.486;2023-02-12T00:01:35;20.70;;;5.00;;
13244;SDS011;6689;53.400;12.486;2023-02-12T00:04:03;23.80;;;5.07;;
13244;SDS011;6689;53.400;12.486;2023-02-12T00:06:32;21.77;;;4.72;;
13244;SDS011;6689;53.400;12.486;2023-02-12T00:08:59;18.45;;;5.50;;
13244;SDS011;6689;53.400;12.486;2023-02-12T00:11:27;23.85;;;5.22;;
13244;SDS011;6689;53.400;12.486;2023-02-12T00:13:55;21.58;;;5.63;;
13244;SDS011;6689;53.400;12.486;2023-02-12T00:16:24;18.52;;;6.10;;
13244;SDS011;6689;53.400;12.486;2023-02-12T00:18:53;20.50;;;6.13;;
13244;SDS011;6689;53.400;12.486;2023-02-12T00:21:21;21.20;;;5.50;;
13244;SDS011;6689;53.400;12.486;2023-02-12T00:23:50;23.27;;;5.82;;
13244;SDS011;6689;53.400;12.486;2023-02-12T00:26:18;18.80;;;5.35;;
13244;SDS011;6689;53.400;12.486;2023-02-12T00:28:47;20.60;;;4.80;;
13244;SDS011;6689;53.400;12.486;2023-02-12T00:31:15;17.45;;;5.35;;
13244;SDS011;6689;53.400;12.486;2023-02-12T00:33:44;24.45;;;6.63;;
13244;SDS011;6689;53.400;12.486;2023-02-12T00:36:13;19.33;;;5.47;;
13244;SDS011;6689;53.400;12.486;2023-02-12T00:38:41;19.17;;;6.00;;
13244;SDS011;6689;53.400;12.486;2023-02-12T00:41:10;23.83;;;5.90;;
13244;SDS011;6689;53.400;12.486;2023-02-12T00:43:38;17.73;;;6.18;;
13244;SDS011;6689;53.400;12.486;2023-02-12T00:46:06;26.60;;;5.88;;
13244;SDS011;6689;53.400;12.486;2023-02-12T00:48:33;19.00;;;5.68;;
13244;SDS011;6689;53.400;12.486;2023-02-12T00:51:00;18.33;;;6.10;;
13244;SDS011;6689;53.400;12.486;2023-02-12T00:53:28;25.88;;;7.15;;
13244;SDS011;6689;53.400;12.486;2023-02-12T00:55:55;21.58;;;5.65;;
13244;SDS011;6689;53.400;12.486;2023-02-12T00:58:24;20.20;;;6.20;;
13244;SDS011;6689;53.400;12.486;2023-02-12T01:00:52;25.00;;;5.50;;
13244;SDS011;6689;53.400;12.486;2023-02-12T01:03:19;23.17;;;6.65;;
13244;SDS011;6689;53.400;12.486;2023-02-12T01:05:47;15.80;;;5.57;;
13244;SDS011;6689;53.400;12.486;2023-02-12T01:08:15;23.80;;;5.97;;
13244;SDS011;6689;53.400;12.486;2023-02-12T01:10:43;20.83;;;5.80;;
13244;SDS011;6689;53.400;12.486;2023-02-12T01:13:11;19.15;;;5.90;;
13244;SDS011;6689;53.400;12.486;2023-02-12T01:15:41;21.52;;;5.90;;
13244;SDS011;6689;53.400;12.486;2023-02-12T01:18:09;26.25;;;6.22;;
13244;SDS011;6689;53.400;12.486;2023-02-12T01:20:40;27.77;;;6.13;;
13244;SDS011;6689;53.400;12.486;2023-02-12T01:23:07;21.75;;;7.38;;
13244;SDS011;6689;53.400;12.486;2023-02-12T01:25:34;16.92;;;5.70;;
13244;SDS011;6689;53.400;12.486;2023-02-12T01:28:04;20.50;;;5.30;;
13244;SDS011;6689;53.400;12.486;2023-02-12T01:30:31;22.98;;;5.93;;
13244;SDS011;6689;53.400;12.486;2023-02-12T01:33:00;28.27;;;8.20;;
13244;SDS011;6689;53.400;12.486;2023-02-12T01:35:27;23.83;;;6.47;;
13244;SDS011;6689;53.400;12.486;2023-02-12T01:37:54;20.05;;;5.30;;
13244;SDS011;6689;53.400;12.486;2023-02-12T01:40:23;22.73;;;6.35;;
13244;SDS011;6689;53.400;12.486;2023-02-12T01:42:50;18.63;;;6.53;;
13244;SDS011;6689;53.400;12.486;2023-02-12T01:48:15;28.65;;;8.70;;
13244;SDS011;6689;53.400;12.486;2023-02-12T01:50:43;16.90;;;5.47;;
13244;SDS011;6689;53.400;12.486;2023-02-12T01:53:13;23.05;;;7.38;;
13244;SDS011;6689;53.400;12.486;2023-02-12T01:55:45;25.20;;;6.85;;
13244;SDS011;6689;53.400;12.486;2023-02-12T01:58:17;24.40;;;6.13;;
13244;SDS011;6689;53.400;12.486;2023-02-12T02:00:45;25.80;;;7.63;;
13244;SDS011;6689;53.400;12.486;2023-02-12T02:03:14;24.63;;;5.65;;
13244;SDS011;6689;53.400;12.486;2023-02-12T02:05:43;23.58;;;6.63;;
13244;SDS011;6689;53.400;12.486;2023-02-12T02:08:15;20.33;;;6.75;;
13244;SDS011;6689;53.400;12.486;2023-02-12T02:10:42;21.48;;;7.15;;
13244;SDS011;6689;53.400;12.486;2023-02-12T02:13:09;22.70;;;6.35;;
13244;SDS011;6689;53.400;12.486;2023-02-12T02:15:58;19.40;;;5.45;;
13244;SDS011;6689;53.400;12.486;2023-02-12T02:18:31;17.35;;;6.22;;
13244;SDS011;6689;53.400;12.486;2023-02-12T02:24:10;28.25;;;6.72;;
13244;SDS011;6689;53.400;12.486;2023-02-12T02:27:01;24.73;;;6.45;;
13244;SDS011;6689;53.400;12.486;2023-02-12T02:32:28;22.33;;;5.93;;
13244;SDS011;6689;53.400;12.486;2023-02-12T02:35:02;23.17;;;6.35;;
13244;SDS011;6689;53.400;12.486;2023-02-12T02:37:38;21.08;;;6.35;;
13244;SDS011;6689;53.400;12.486;2023-02-12T02:40:13;20.20;;;6.18;;
13244;SDS011;6689;53.400;12.486;2023-02-12T02:46:07;23.70;;;6.95;;
13244;SDS011;6689;53.400;12.486;2023-02-12T02:48:40;26.02;;;6.53;;
13244;SDS011;6689;53.400;12.486;2023-02-12T02:51:13;16.67;;;5.32;;
13244;SDS011;6689;53.400;12.486;2023-02-12T02:53:44;21.17;;;5.78;;
13244;SDS011;6689;53.400;12.486;2023-02-12T02:56:17;15.48;;;6.05;;
13244;SDS011;6689;53.400;12.486;2023-02-12T02:58:49;23.88;;;6.80;;
13244;SDS011;6689;53.400;12.486;2023-02-12T03:01:19;25.98;;;6.85;;
13244;SDS011;6689;53.400;12.486;2023-02-12T03:03:52;20.08;;;6.05;;
13244;SDS011;6689;53.400;12.486;2023-02-12T03:06:26;21.08;;;6.88;;
13244;SDS011;6689;53.400;12.486;2023-02-12T03:09:00;18.05;;;6.45;;
13244;SDS011;6689;53.400;12.486;2023-02-12T03:11:30;21.13;;;7.82;;
13244;SDS011;6689;53.400;12.486;2023-02-12T03:14:01;22.20;;;7.07;;
13244;SDS011;6689;53.400;12.486;2023-02-12T03:16:33;18.65;;;6.25;;
13244;SDS011;6689;53.400;12.486;2023-02-12T03:19:07;22.30;;;6.22;;
13244;SDS011;6689;53.400;12.486;2023-02-12T03:21:38;16.00;;;6.40;;
13244;SDS011;6689;53.400;12.486;2023-02-12T03:24:10;23.52;;;6.53;;
13244;SDS011;6689;53.400;12.486;2023-02-12T03:26:43;30.00;;;6.53;;
13244;SDS011;6689;53.400;12.486;2023-02-12T03:29:14;22.05;;;6.22;;
13244;SDS011;6689;53.400;12.486;2023-02-12T03:31:48;23.52;;;6.75;;
13244;SDS011;6689;53.400;12.486;2023-02-12T03:34:25;20.52;;;6.68;;
13244;SDS011;6689;53.400;12.486;2023-02-12T03:37:01;32.17;;;7.78;;
13244;SDS011;6689;53.400;12.486;2023-02-12T03:39:33;21.85;;;6.47;;
13244;SDS011;6689;53.400;12.486;2023-02-12T03:42:12;19.27;;;6.15;;
13244;SDS011;6689;53.400;12.486;2023-02-12T03:44:47;20.70;;;7.90;;
13244;SDS011;6689;53.400;12.486;2023-02-12T03:47:20;23.45;;;6.72;;
13244;SDS011;6689;53.400;12.486;2023-02-12T03:49:56;26.15;;;7.93;;
13244;SDS011;6689;53.400;12.486;2023-02-12T03:52:28;18.95;;;6.78;;
13244;SDS011;6689;53.400;12.486;2023-02-12T03:54:55;19.67;;;6.85;;
13244;SDS011;6689;53.400;12.486;2023-02-12T03:57:24;19.90;;;6.53;;
13244;SDS011;6689;53.400;12.486;2023-02-12T03:59:55;26.20;;;6.30;;
13244;SDS011;6689;53.400;12.486;2023-02-12T04:02:24;20.38;;;6.55;;
13244;SDS011;6689;53.400;12.486;2023-02-12T04:04:51;22.73;;;6.30;;
13244;SDS011;6689;53.400;12.486;2023-02-12T04:07:20;19.60;;;6.47;;
13244;SDS011;6689;53.400;12.486;2023-02-12T04:09:47;23.23;;;7.03;;
13244;SDS011;6689;53.400;12.486;2023-02-12T04:12:27;26.33;;;7.72;;
13244;SDS011;6689;53.400;12.486;2023-02-12T04:15:04;21.42;;;6.45;;
13244;SDS011;6689;53.400;12.486;2023-02-12T04:17:55;26.33;;;7.75;;
13244;SDS011;6689;53.400;12.486;2023-02-12T04:20:33;28.95;;;7.07;;
13244;SDS011;6689;53.400;12.486;2023-02-12T04:23:20;22.73;;;8.27;;
13244;SDS011;6689;53.400;12.486;2023-02-12T04:26:00;21.77;;;7.25;;
13244;SDS011;6689;53.400;12.486;2023-02-12T04:28:35;24.25;;;6.70;;
13244;SDS011;6689;53.400;12.486;2023-02-12T04:31:10;21.43;;;6.20;;
13244;SDS011;6689;53.400;12.486;2023-02-12T04:33:47;20.95;;;6.05;;
13244;SDS011;6689;53.400;12.486;2023-02-12T04:36:20;20.57;;;6.67;;
13244;SDS011;6689;53.400;12.486;2023-02-12T04:38:52;25.13;;;6.90;;
13244;SDS011;6689;53.400;12.486;2023-02-12T04:41:23;24.17;;;7.85;;
13244;SDS011;6689;53.400;12.486;2023-02-12T04:43:51;28.30;;;7.07;;
13244;SDS011;6689;53.400;12.486;2023-02-12T04:46:19;21.88;;;8.23;;
13244;SDS011;6689;53.400;12.486;2023-02-12T04:48:49;22.63;;;7.13;;
13244;SDS011;6689;53.400;12.486;2023-02-12T04:51:18;16.25;;;7.18;;
13244;SDS011;6689;53.400;12.486;2023-02-12T04:53:46;20.33;;;7.43;;
13244;SDS011;6689;53.400;12.486;2023-02-12T04:56:15;17.35;;;6.70;;
13244;SDS011;6689;53.400;12.486;2023-02-12T04:58:42;18.63;;;6.70;;
13244;SDS011;6689;53.400;12.486;2023-02-12T05:01:10;27.38;;;7.30;;
13244;SDS011;6689;53.400;12.486;2023-02-12T05:03:37;22.45;;;8.70;;
13244;SDS011;6689;53.400;12.486;2023-02-12T05:06:05;21.67;;;5.95;;
13244;SDS011;6689;53.400;12.486;2023-02-12T05:08:34;20.08;;;7.22;;
13244;SDS011;6689;53.400;12.486;2023-02-12T05:11:02;27.67;;;8.25;;
13244;SDS011;6689;53.400;12.486;2023-02-12T05:13:32;19.92;;;6.90;;
13244;SDS011;6689;53.400;12.486;2023-02-12T05:15:59;24.38;;;7.15;;
13244;SDS011;6689;53.400;12.486;2023-02-12T05:18:29;27.98;;;7.00;;
13244;SDS011;6689;53.400;12.486;2023-02-12T05:20:57;18.40;;;6.90;;
13244;SDS011;6689;53.400;12.486;2023-02-12T05:23:25;20.27;;;7.05;;
13244;SDS011;6689;53.400;12.486;2023-02-12T05:25:52;22.63;;;7.60;;
13244;SDS011;6689;53.400;12.486;2023-02-12T05:28:20;18.88;;;6.13;;
13244;SDS011;6689;53.400;12.486;2023-02-12T05:30:48;27.05;;;7.07;;
13244;SDS011;6689;53.400;12.486;2023-02-12T05:33:16;26.10;;;6.43;;
13244;SDS011;6689;53.400;12.486;2023-02-12T05:35:43;17.58;;;6.35;;
13244;SDS011;6689;53.400;12.486;2023-02-12T05:38:10;24.02;;;6.82;;
13244;SDS011;6689;53.400;12.486;2023-02-12T05:40:37;26.02;;;7.18;;
13244;SDS011;6689;53.400;12.486;2023-02-12T05:43:07;22.42;;;6.90;;
13244;SDS011;6689;53.400;12.486;2023-02-12T05:45:34;23.45;;;7.15;;
13244;SDS011;6689;53.400;12.486;2023-02-12T05:48:04;20.65;;;8.15;;
13244;SDS011;6689;53.400;12.486;2023-02-12T05:50:32;28.55;;;7.10;;
13244;SDS011;6689;53.400;12.486;2023-02-12T05:52:59;26.50;;;8.68;;
13244;SDS011;6689;53.400;12.486;2023-02-12T05:55:26;23.83;;;8.52;;
13244;SDS011;6689;53.400;12.486;2023-02-12T05:57:54;24.92;;;8.20;;
13244;SDS011;6689;53.400;12.486;2023-02-12T06:00:22;28.20;;;8.13;;
13244;SDS011;6689;53.400;12.486;2023-02-12T06:02:49;17.05;;;7.78;;
13244;SDS011;6689;53.400;12.486;2023-02-12T06:05:18;24.05;;;9.35;;
13244;SDS011;6689;53.400;12.486;2023-02-12T06:07:45;19.23;;;8.63;;
13244;SDS011;6689;53.400;12.486;2023-02-12T06:10:12;21.95;;;6.93;;
13244;SDS011;6689;53.400;12.486;2023-02-12T06:12:40;24.95;;;8.25;;
13244;SDS011;6689;53.400;12.486;2023-02-12T06:15:07;17.02;;;7.70;;
13244;SDS011;6689;53.400;12.486;2023-02-12T06:17:35;26.17;;;9.23;;
13244;SDS011;6689;53.400;12.486;2023-02-12T06:20:02;28.92;;;7.97;;
13244;SDS011;6689;53.400;12.486;2023-02-12T06:22:32;20.88;;;7.78;;
13244;SDS011;6689;53.400;12.486;2023-02-12T06:24:59;21.65;;;8.38;;
13244;SDS011;6689;53.400;12.486;2023-02-12T06:27:27;23.10;;;8.40;;
13244;SDS011;6689;53.400;12.486;2023-02-12T06:29:55;23.40;;;8.77;;
13244;SDS011;6689;53.400;12.486;2023-02-12T06:32:22;24.88;;;8.40;;
13244;SDS011;6689;53.400;12.486;2023-02-12T06:34:49;15.25;;;7.40;;
13244;SDS011;6689;53.400;12.486;2023-02-12T06:37:17;18.65;;;8.27;;
13244;SDS011;6689;53.400;12.486;2023-02-12T06:39:46;18.90;;;8.10;;
13244;SDS011;6689;53.400;12.486;2023-02-12T06:42:13;21.00;;;7.70;;
13244;SDS011;6689;53.400;12.486;2023-02-12T06:44:40;19.48;;;8.23;;
13244;SDS011;6689;53.400;12.486;2023-02-12T06:47:08;19.27;;;6.35;;
13244;SDS011;6689;53.400;12.486;2023-02-12T06:49:35;19.48;;;7.75;;
13244;SDS011;6689;53.400;12.486;2023-02-12T06:52:02;15.43;;;6.97;;
13244;SDS011;6689;53.400;12.486;2023-02-12T06:54:29;22.02;;;7.35;;
13244;SDS011;6689;53.400;12.486;2023-02-12T06:56:58;15.52;;;6.53;;
13244;SDS011;6689;53.400;12.486;2023-02-12T06:59:25;15.68;;;5.53;;
13244;SDS011;6689;53.400;12.486;2023-02-12T07:01:53;9.45;;;4.30;;
13244;SDS011;6689;53.400;12.486;2023-02-12T07:04:20;13.73;;;4.80;;
13244;SDS011;6689;53.400;12.486;2023-02-12T07:06:47;10.98;;;3.92;;
13244;SDS011;6689;53.400;12.486;2023-02-12T07:09:16;7.70;;;3.97;;
13244;SDS011;6689;53.400;12.486;2023-02-12T07:11:43;7.05;;;3.38;;
13244;SDS011;6689;53.400;12.486;2023-02-12T07:14:13;9.02;;;4.43;;
13244;SDS011;6689;53.400;12.486;2023-02-12T07:16:42;12.07;;;4.47;;
13244;SDS011;6689;53.400;12.486;2023-02-12T07:19:10;8.00;;;3.40;;
13244;SDS011;6689;53.400;12.486;2023-02-12T07:21:40;9.55;;;4.30;;
13244;SDS011;6689;53.400;12.486;2023-02-12T07:24:08;9.48;;;3.88;;
13244;SDS011;6689;53.400;12.486;2023-02-12T07:26:36;9.52;;;4.40;;
13244;SDS011;6689;53.400;12.486;2023-02-12T07:29:04;7.60;;;3.88;;
13244;SDS011;6689;53.400;12.486;2023-02-12T07:31:32;9.70;;;3.60;;
13244;SDS011;6689;53.400;12.486;2023-02-12T07:34:00;5.93;;;3.28;;
13244;SDS011;6689;53.400;12.486;2023-02-12T07:36:28;10.57;;;3.85;;
13244;SDS011;6689;53.400;12.486;2023-02-12T07:38:57;7.07;;;3.60;;
13244;SDS011;6689;53.400;12.486;2023-02-12T07:41:26;9.07;;;4.13;;
13244;SDS011;6689;53.400;12.486;2023-02-12T07:43:55;10.80;;;4.25;;
13244;SDS011;6689;53.400;12.486;2023-02-12T07:46:24;8.50;;;3.88;;
13244;SDS011;6689;53.400;12.486;2023-02-12T07:48:57;6.40;;;3.47;;
13244;SDS011;6689;53.400;12.486;2023-02-12T07:51:25;7.20;;;3.38;;
13244;SDS011;6689;53.400;12.486;2023-02-12T07:53:54;6.10;;;3.30;;
13244;SDS011;6689;53.400;12.486;2023-02-12T07:56:22;6.78;;;3.53;;
13244;SDS011;6689;53.400;12.486;2023-02-12T07:58:53;8.45;;;4.18;;
13244;SDS011;6689;53.400;12.486;2023-02-12T08:01:21;7.28;;;4.28;;
13244;SDS011;6689;53.400;12.486;2023-02-12T08:03:50;11.77;;;4.65;;
13244;SDS011;6689;53.400;12.486;2023-02-12T08:06:20;7.93;;;4.30;;
13244;SDS011;6689;53.400;12.486;2023-02-12T08:08:49;9.85;;;4.15;;
13244;SDS011;6689;53.400;12.486;2023-02-12T08:11:17;8.50;;;4.57;;
13244;SDS011;6689;53.400;12.486;2023-02-12T08:13:45;9.55;;;4.05;;
13244;SDS011;6689;53.400;12.486;2023-02-12T08:16:13;10.40;;;5.07;;
13244;SDS011;6689;53.400;12.486;2023-02-12T08:18:43;9.50;;;4.53;;
13244;SDS011;6689;53.400;12.486;2023-02-12T08:21:12;11.18;;;4.35;;
13244;SDS011;6689;53.400;12.486;2023-02-12T08:23:42;8.40;;;3.92;;
13244;SDS011;6689;53.400;12.486;2023-02-12T08:26:10;9.93;;;3.85;;
13244;SDS011;6689;53.400;12.486;2023-02-12T08:28:43;9.70;;;4.15;;
13244;SDS011;6689;53.400;12.486;2023-02-12T08:31:12;10.23;;;4.30;;
13244;SDS011;6689;53.400;12.486;2023-02-12T08:33:41;8.25;;;3.88;;
13244;SDS011;6689;53.400;12.486;2023-02-12T08:36:10;6.72;;;3.58;;
13244;SDS011;6689;53.400;12.486;2023-02-12T08:38:42;8.80;;;3.63;;
13244;SDS011;6689;53.400;12.486;2023-02-12T08:41:10;9.13;;;3.90;;
13244;SDS011;6689;53.400;12.486;2023-02-12T08:43:39;11.63;;;3.70;;
13244;SDS011;6689;53.400;12.486;2023-02-12T08:46:08;7.25;;;4.13;;
13244;SDS011;6689;53.400;12.486;2023-02-12T08:48:37;8.05;;;3.80;;
13244;SDS011;6689;53.400;12.486;2023-02-12T08:51:05;6.95;;;3.10;;
13244;SDS011;6689;53.400;12.486;2023-02-12T08:53:34;7.43;;;3.42;;
13244;SDS011;6689;53.400;12.486;2023-02-12T08:56:03;6.10;;;3.40;;
13244;SDS011;6689;53.400;12.486;2023-02-12T08:58:31;7.20;;;3.35;;
13244;SDS011;6689;53.400;12.486;2023-02-12T09:01:01;7.78;;;3.97;;
13244;SDS011;6689;53.400;12.486;2023-02-12T09:03:29;4.43;;;2.88;;
13244;SDS011;6689;53.400;12.486;2023-02-12T09:06:08;6.88;;;3.03;;
13244;SDS011;6689;53.400;12.486;2023-02-12T09:08:36;8.73;;;3.53;;
13244;SDS011;6689;53.400;12.486;2023-02-12T09:11:14;5.13;;;3.10;;
13244;SDS011;6689;53.400;12.486;2023-02-12T09:13:43;5.32;;;3.00;;
13244;SDS011;6689;53.400;12.486;2023-02-12T09:16:13;7.90;;;3.25;;
13244;SDS011;6689;53.400;12.486;2023-02-12T09:18:43;5.43;;;2.58;;
13244;SDS011;6689;53.400;12.486;2023-02-12T09:21:11;7.47;;;3.00;;
13244;SDS011;6689;53.400;12.486;2023-02-12T09:23:40;7.15;;;3.03;;
13244;SDS011;6689;53.400;12.486;2023-02-12T09:26:10;4.78;;;2.40;;
13244;SDS011;6689;53.400;12.486;2023-02-12T09:28:41;6.28;;;3.42;;
13244;SDS011;6689;53.400;12.486;2023-02-12T09:31:09;3.92;;;2.30;;
13244;SDS011;6689;53.400;12.486;2023-02-12T09:33:37;6.22;;;2.63;;
13244;SDS011;6689;53.400;12.486;2023-02-12T09:36:06;4.07;;;2.67;;
13244;SDS011;6689;53.400;12.486;2023-02-12T09:38:35;6.22;;;2.83;;
13244;SDS011;6689;53.400;12.486;2023-02-12T09:41:11;3.63;;;2.60;;
13244;SDS011;6689;53.400;12.486;2023-02-12T09:43:57;5.05;;;2.78;;
13244;SDS011;6689;53.400;12.486;2023-02-12T09:46:32;5.77;;;2.93;;
13244;SDS011;6689;53.400;12.486;2023-02-12T09:49:06;4.78;;;2.75;;
13244;SDS011;6689;53.400;12.486;2023-02-12T09:51:35;7.30;;;3.45;;
13244;SDS011;6689;53.400;12.486;2023-02-12T09:54:06;7.00;;;3.58;;
13244;SDS011;6689;53.400;12.486;2023-02-12T09:56:40;9.98;;;2.90;;
13244;SDS011;6689;53.400;12.486;2023-02-12T09:59:12;5.72;;;2.72;;
13244;SDS011;6689;53.400;12.486;2023-02-12T10:01:46;5.70;;;3.00;;
13244;SDS011;6689;53.400;12.486;2023-02-12T10:04:14;6.35;;;3.38;;
13244;SDS011;6689;53.400;12.486;2023-02-12T10:06:42;9.60;;;3.15;;
13244;SDS011;6689;53.400;12.486;2023-02-12T10:09:20;5.53;;;3.47;;
13244;SDS011;6689;53.400;12.486;2023-02-12T10:12:03;6.00;;;3.10;;
13244;SDS011;6689;53.400;12.486;2023-02-12T10:14:45;8.05;;;3.25;;
13244;SDS011;6689;53.400;12.486;2023-02-12T10:17:30;4.20;;;2.80;;
13244;SDS011;6689;53.400;12.486;2023-02-12T10:23:07;6.40;;;2.67;;
13244;SDS011;6689;53.400;12.486;2023-02-12T10:25:47;6.43;;;2.92;;
13244;SDS011;6689;53.400;12.486;2023-02-12T10:28:19;7.85;;;2.80;;
13244;SDS011;6689;53.400;12.486;2023-02-12T10:30:51;5.35;;;2.63;;
13244;SDS011;6689;53.400;12.486;2023-02-12T10:33:24;6.88;;;2.80;;
13244;SDS011;6689;53.400;12.486;2023-02-12T10:35:57;7.93;;;3.17;;
13244;SDS011;6689;53.400;12.486;2023-02-12T10:38:30;7.00;;;3.20;;
13244;SDS011;6689;53.400;12.486;2023-02-12T10:41:01;6.95;;;3.30;;
13244;SDS011;6689;53.400;12.486;2023-02-12T10:43:30;5.70;;;2.67;;
13244;SDS011;6689;53.400;12.486;2023-02-12T10:45:58;8.70;;;3.17;;
13244;SDS011;6689;53.400;12.486;2023-02-12T10:48:26;6.75;;;3.38;;
13244;SDS011;6689;53.400;12.486;2023-02-12T10:51:01;8.15;;;3.75;;
13244;SDS011;6689;53.400;12.486;2023-02-12T10:53:41;7.05;;;2.97;;
13244;SDS011;6689;53.400;12.486;2023-02-12T10:56:14;7.72;;;3.30;;
13244;SDS011;6689;53.400;12.486;2023-02-12T10:58:56;5.55;;;3.17;;
13244;SDS011;6689;53.400;12.486;2023-02-12T11:01:26;9.43;;;3.05;;
13244;SDS011;6689;53.400;12.486;2023-02-12T11:03:57;7.32;;;3.10;;
13244;SDS011;6689;53.400;12.486;2023-02-12T11:06:25;9.88;;;4.47;;
13244;SDS011;6689;53.400;12.486;2023-02-12T11:08:54;5.18;;;3.05;;
13244;SDS011;6689;53.400;12.486;2023-02-12T11:11:23;5.28;;;2.70;;
13244;SDS011;6689;53.400;12.486;2023-02-12T11:13:53;5.07;;;2.28;;
13244;SDS011;6689;53.400;12.486;2023-02-12T11:16:26;8.20;;;2.90;;
13244;SDS011;6689;53.400;12.486;2023-02-12T11:18:59;4.95;;;2.10;;
13244;SDS011;6689;53.400;12.486;2023-02-12T11:21:29;6.07;;;2.50;;
13244;SDS011;6689;53.400;12.486;2023-02-12T11:23:57;8.05;;;2.85;;
13244;SDS011;6689;53.400;12.486;2023-02-12T11:26:56;6.80;;;1.88;;
13244;SDS011;6689;53.400;12.486;2023-02-12T11:29:39;6.85;;;1.52;;
13244;SDS011;6689;53.400;12.486;2023-02-12T11:32:07;7.95;;;2.25;;
13244;SDS011;6689;53.400;12.486;2023-02-12T11:34:40;4.00;;;1.40;;
13244;SDS011;6689;53.400;12.486;2023-02-12T11:37:11;4.53;;;1.52;;
13244;SDS011;6689;53.400;12.486;2023-02-12T11:39:41;4.00;;;1.52;;
13244;SDS011;6689;53.400;12.486;2023-02-12T11:42:15;4.10;;;1.30;;
13244;SDS011;6689;53.400;12.486;2023-02-12T11:44:48;4.63;;;1.42;;
13244;SDS011;6689;53.400;12.486;2023-02-12T11:47:19;3.40;;;1.05;;
13244;SDS011;6689;53.400;12.486;2023-02-12T11:49:49;3.53;;;1.40;;
13244;SDS011;6689;53.400;12.486;2023-02-12T11:52:19;7.60;;;1.70;;
13244;SDS011;6689;53.400;12.486;2023-02-12T11:54:48;6.47;;;1.60;;
13244;SDS011;6689;53.400;12.486;2023-02-12T11:57:34;5.18;;;1.85;;
13244;SDS011;6689;53.400;12.486;2023-02-12T12:00:05;3.60;;;1.52;;
13244;SDS011;6689;53.400;12.486;2023-02-12T12:02:41;3.00;;;1.58;;
13244;SDS011;6689;53.400;12.486;2023-02-12T12:05:14;4.95;;;1.92;;
13244;SDS011;6689;53.400;12.486;2023-02-12T12:07:45;4.07;;;2.72;;
13244;SDS011;6689;53.400;12.486;2023-02-12T12:10:18;4.97;;;1.95;;
13244;SDS011;6689;53.400;12.486;2023-02-12T12:12:58;4.47;;;2.05;;
13244;SDS011;6689;53.400;12.486;2023-02-12T12:15:31;6.53;;;2.20;;
13244;SDS011;6689;53.400;12.486;2023-02-12T12:18:20;4.82;;;2.03;;
13244;SDS011;6689;53.400;12.486;2023-02-12T12:21:12;5.20;;;1.88;;
13244;SDS011;6689;53.400;12.486;2023-02-12T12:23:46;4.65;;;2.13;;
13244;SDS011;6689;53.400;12.486;2023-02-12T12:26:20;5.90;;;2.25;;
13244;SDS011;6689;53.400;12.486;2023-02-12T12:28:52;6.07;;;2.05;;
13244;SDS011;6689;53.400;12.486;2023-02-12T12:31:27;7.35;;;1.90;;
13244;SDS011;6689;53.400;12.486;2023-02-12T12:34:01;6.95;;;1.73;;
13244;SDS011;6689;53.400;12.486;2023-02-12T12:36:55;3.30;;;1.38;;
13244;SDS011;6689;53.400;12.486;2023-02-12T12:39:47;7.15;;;2.13;;
13244;SDS011;6689;53.400;12.486;2023-02-12T12:45:28;6.43;;;2.75;;
13244;SDS011;6689;53.400;12.486;2023-02-12T12:48:39;3.25;;;1.58;;
13244;SDS011;6689;53.400;12.486;2023-02-12T12:51:18;3.20;;;1.88;;
13244;SDS011;6689;53.400;12.486;2023-02-12T12:54:04;5.72;;;2.10;;
13244;SDS011;6689;53.400;12.486;2023-02-12T12:56:52;3.70;;;2.08;;
13244;SDS011;6689;53.400;12.486;2023-02-12T12:59:30;4.38;;;1.80;;
13244;SDS011;6689;53.400;12.486;2023-02-12T13:02:17;4.65;;;2.05;;
13244;SDS011;6689;53.400;12.486;2023-02-12T13:05:18;4.32;;;2.08;;
13244;SDS011;6689;53.400;12.486;2023-02-12T13:10:32;5.97;;;2.30;;
13244;SDS011;6689;53.400;12.486;2023-02-12T13:15:53;3.53;;;2.38;;
13244;SDS011;6689;53.400;12.486;2023-02-12T13:18:38;5.25;;;2.03;;
13244;SDS011;6689;53.400;12.486;2023-02-12T13:21:21;5.68;;;3.17;;
13244;SDS011;6689;53.400;12.486;2023-02-12T13:24:00;5.90;;;2.92;;
13244;SDS011;6689;53.400;12.486;2023-02-12T13:26:35;4.22;;;2.70;;
13244;SDS011;6689;53.400;12.486;2023-02-12T13:29:10;6.20;;;2.88;;
13244;SDS011;6689;53.400;12.486;2023-02-12T13:31:43;4.93;;;2.67;;
13244;SDS011;6689;53.400;12.486;2023-02-12T13:34:15;7.30;;;2.67;;
13244;SDS011;6689;53.400;12.486;2023-02-12T13:36:45;6.25;;;2.65;;
13244;SDS011;6689;53.400;12.486;2023-02-12T13:39:15;7.57;;;2.70;;
13244;SDS011;6689;53.400;12.486;2023-02-12T13:41:53;5.65;;;2.45;;
13244;SDS011;6689;53.400;12.486;2023-02-12T13:44:30;4.03;;;1.80;;
13244;SDS011;6689;53.400;12.486;2023-02-12T13:47:05;5.70;;;1.90;;
13244;SDS011;6689;53.400;12.486;2023-02-12T13:49:39;6.95;;;1.80;;
13244;SDS011;6689;53.400;12.486;2023-02-12T13:52:16;5.40;;;2.22;;
13244;SDS011;6689;53.400;12.486;2023-02-12T13:54:54;3.45;;;2.03;;
13244;SDS011;6689;53.400;12.486;2023-02-12T13:57:30;5.38;;;2.40;;
13244;SDS011;6689;53.400;12.486;2023-02-12T13:59:58;4.70;;;2.10;;
13244;SDS011;6689;53.400;12.486;2023-02-12T14:05:23;5.72;;;2.65;;
13244;SDS011;6689;53.400;12.486;2023-02-12T14:07:54;3.95;;;2.10;;
13244;SDS011;6689;53.400;12.486;2023-02-12T14:10:26;5.13;;;2.33;;
13244;SDS011;6689;53.400;12.486;2023-02-12T14:12:57;4.30;;;1.85;;
13244;SDS011;6689;53.400;12.486;2023-02-12T14:15:39;4.78;;;2.25;;
13244;SDS011;6689;53.400;12.486;2023-02-12T14:18:22;6.22;;;2.65;;
13244;SDS011;6689;53.400;12.486;2023-02-12T14:27:31;3.40;;;2.03;;
13244;SDS011;6689;53.400;12.486;2023-02-12T14:30:03;3.58;;;2.10;;
13244;SDS011;6689;53.400;12.486;2023-02-12T14:33:08;6.95;;;3.38;;
13244;SDS011;6689;53.400;12.486;2023-02-12T14:35:43;4.90;;;3.03;;
13244;SDS011;6689;53.400;12.486;2023-02-12T14:41:28;11.05;;;3.83;;
13244;SDS011;6689;53.400;12.486;2023-02-12T14:47:15;6.35;;;4.18;;
13244;SDS011;6689;53.400;12.486;2023-02-12T14:50:22;6.05;;;3.45;;
13244;SDS011;6689;53.400;12.486;2023-02-12T14:52:56;6.28;;;4.30;;
13244;SDS011;6689;53.400;12.486;2023-02-12T14:55:29;6.35;;;3.42;;
13244;SDS011;6689;53.400;12.486;2023-02-12T14:58:00;8.23;;;4.45;;
13244;SDS011;6689;53.400;12.486;2023-02-12T15:00:31;8.35;;;4.22;;
13244;SDS011;6689;53.400;12.486;2023-02-12T15:03:06;6.97;;;4.35;;
13244;SDS011;6689;53.400;12.486;2023-02-12T15:05:52;8.88;;;4.75;;
13244;SDS011;6689;53.400;12.486;2023-02-12T15:08:27;8.57;;;4.72;;
13244;SDS011;6689;53.400;12.486;2023-02-12T15:11:02;10.60;;;4.50;;
13244;SDS011;6689;53.400;12.486;2023-02-12T15:13:40;8.60;;;4.57;;
13244;SDS011;6689;53.400;12.486;2023-02-12T15:16:13;9.23;;;4.53;;
13244;SDS011;6689;53.400;12.486;2023-02-12T15:18:51;6.35;;;4.30;;
13244;SDS011;6689;53.400;12.486;2023-02-12T15:21:23;5.93;;;2.95;;
13244;SDS011;6689;53.400;12.486;2023-02-12T15:23:59;9.02;;;3.78;;
13244;SDS011;6689;53.400;12.486;2023-02-12T15:28:57;7.25;;;3.80;;
13244;SDS011;6689;53.400;12.486;2023-02-12T15:31:28;6.32;;;3.30;;
13244;SDS011;6689;53.400;12.486;2023-02-12T15:33:59;10.82;;;3.50;;
13244;SDS011;6689;53.400;12.486;2023-02-12T15:36:29;7.93;;;3.10;;
13244;SDS011;6689;53.400;12.486;2023-02-12T15:38:59;7.25;;;4.32;;
13244;SDS011;6689;53.400;12.486;2023-02-12T15:41:33;5.28;;;3.05;;
13244;SDS011;6689;53.400;12.486;2023-02-12T15:44:03;8.18;;;3.45;;
13244;SDS011;6689;53.400;12.486;2023-02-12T15:46:51;9.63;;;3.83;;
13244;SDS011;6689;53.400;12.486;2023-02-12T15:49:23;6.45;;;3.63;;
13244;SDS011;6689;53.400;12.486;2023-02-12T15:51:53;9.43;;;3.75;;